createdAt,value
2022-08-22T00:02:14.261Z,18.35
2022-08-22T00:03:02.741Z,19.77
2022-08-22T00:04:53.358Z,18.72
2022-08-22T00:07:45.067Z,18.65
2022-08-22T00:10:25.031Z,18.97
2022-08-22T00:13:14.943Z,18.12
2022-08-22T00:15:45.055Z,18.24
2022-08-22T00:18:32.382Z,18.07
2022-08-22T00:21:13.674Z,18.16
2022-08-22T00:23:50.850Z,17.74
2022-08-22T00:26:43.312Z,17.82
2022-08-22T00:29:19.635Z,18.34
2022-08-22T00:31:47.930Z,18.15
2022-08-22T00:34:24.391Z,19.05
2022-08-22T00:37:03.094Z,18.19
2022-08-22T00:39:55.255Z,17.66
2022-08-22T00:42:35.249Z,17.79
2022-08-22T00:45:21.173Z,18.01
2022-08-22T00:48:03.913Z,17.98
2022-08-22T00:51:08.955Z,18.35
2022-08-22T00:53:58.428Z,18.23
2022-08-22T00:56:31.946Z,18.00
2022-08-22T00:59:23.753Z,17.96
2022-08-22T01:02:11.200Z,18.16
2022-08-22T01:05:05.295Z,18.89
2022-08-22T01:08:05.401Z,18.74
2022-08-22T01:10:42.782Z,18.97
2022-08-22T01:13:29.020Z,18.08
2022-08-22T01:16:10.430Z,17.84
2022-08-22T01:18:48.744Z,17.74
2022-08-22T01:21:46.510Z,18.64
2022-08-22T01:24:35.867Z,17.83
2022-08-22T01:27:38.021Z,18.32
2022-08-22T01:30:16.488Z,18.73
2022-08-22T01:33:03.479Z,18.67
2022-08-22T01:35:48.287Z,18.75
2022-08-22T01:38:21.048Z,18.42
2022-08-22T01:41:06.392Z,17.91
2022-08-22T01:44:00.058Z,18.43
2022-08-22T01:46:34.632Z,18.01
2022-08-22T01:49:30.218Z,18.57
2022-08-22T01:52:11.944Z,18.00
2022-08-22T01:54:59.551Z,18.07
2022-08-22T01:57:27.557Z,18.91
2022-08-22T01:59:58.289Z,18.57
2022-08-22T02:02:56.772Z,18.86
2022-08-22T02:05:37.337Z,17.99
2022-08-22T02:08:23.989Z,18.15
2022-08-22T02:11:03.706Z,18.66
2022-08-22T02:13:54.733Z,18.89
2022-08-22T02:16:27.867Z,18.38
2022-08-22T02:19:14.986Z,18.98
2022-08-22T02:22:12.268Z,19.51
2022-08-22T02:25:00.947Z,18.99
2022-08-22T02:27:46.935Z,18.27
2022-08-22T02:30:18.169Z,18.96
2022-08-22T02:32:57.176Z,19.38
2022-08-22T02:35:33.276Z,19.03
2022-08-22T02:38:28.260Z,18.55
2022-08-22T02:41:07.119Z,18.59
2022-08-22T02:43:49.575Z,18.49
2022-08-22T02:46:30.463Z,18.77
2022-08-22T02:49:01.148Z,19.21
2022-08-22T02:52:04.350Z,19.67
2022-08-22T02:54:45.683Z,19.66
2022-08-22T02:57:25.527Z,19.73
2022-08-22T03:00:30.837Z,19.73
2022-08-22T03:03:03.345Z,19.79
2022-08-22T03:05:36.912Z,19.62
2022-08-22T03:08:24.383Z,19.72
2022-08-22T03:11:18.012Z,19.69
2022-08-22T03:14:01.609Z,19.52
2022-08-22T03:16:45.077Z,19.41
2022-08-22T03:19:18.821Z,19.63
2022-08-22T03:21:57.378Z,20.09
2022-08-22T03:24:32.087Z,19.32
2022-08-22T03:27:06.431Z,19.95
2022-08-22T03:29:40.526Z,18.93
2022-08-22T03:32:22.520Z,18.81
2022-08-22T03:35:19.634Z,18.97
2022-08-22T03:37:47.788Z,19.54
2022-08-22T03:40:31.479Z,19.16
2022-08-22T03:43:05.663Z,19.29
2022-08-22T03:45:44.025Z,19.13
2022-08-22T03:48:17.744Z,19.09
2022-08-22T03:50:54.582Z,18.85
2022-08-22T03:53:51.848Z,18.73
2022-08-22T03:56:25.330Z,18.35
2022-08-22T03:59:26.155Z,18.61
2022-08-22T04:02:43.287Z,19.08
2022-08-22T04:05:40.621Z,19.34
2022-08-22T04:08:29.758Z,19.19
2022-08-22T04:11:16.447Z,19.55
2022-08-22T04:14:16.828Z,19.59
2022-08-22T04:17:18.303Z,19.91
2022-08-22T04:20:21.176Z,19.59
2022-08-22T04:23:07.936Z,19.03
2022-08-22T04:25:41.283Z,19.04
2022-08-22T04:28:29.212Z,18.93
2022-08-22T04:31:17.328Z,18.99
2022-08-22T04:33:49.963Z,19.31
2022-08-22T04:36:30.981Z,20.11
2022-08-22T04:39:04.987Z,20.32
2022-08-22T04:41:48.191Z,20.89
2022-08-22T04:44:31.986Z,21.54
2022-08-22T04:47:05.168Z,21.55
2022-08-22T04:49:57.781Z,21.78
2022-08-22T04:53:10.553Z,21.68
2022-08-22T04:56:07.356Z,21.70
2022-08-22T04:58:48.987Z,21.52
2022-08-22T05:01:40.959Z,21.60
2022-08-22T05:04:13.230Z,21.58
2022-08-22T05:06:44.410Z,21.60
2022-08-22T05:09:16.500Z,21.19
2022-08-22T05:11:45.927Z,21.36
2022-08-22T05:14:36.834Z,21.18
2022-08-22T05:17:07.759Z,20.64
2022-08-22T05:19:40.025Z,19.99
2022-08-22T05:22:15.189Z,19.44
2022-08-22T05:24:45.105Z,20.88
2022-08-22T05:27:20.607Z,21.26
2022-08-22T05:29:58.176Z,21.48
2022-08-22T05:32:32.327Z,20.36
2022-08-22T05:35:01.871Z,21.55
2022-08-22T05:37:43.565Z,22.06
2022-08-22T05:40:22.016Z,21.79
2022-08-22T05:42:49.812Z,21.30
2022-08-22T05:45:18.288Z,22.23
2022-08-22T05:47:52.211Z,22.42
2022-08-22T05:50:50.416Z,22.54
2022-08-22T05:53:41.580Z,20.92
2022-08-22T05:56:10.995Z,21.64
2022-08-22T05:58:54.886Z,22.01
2022-08-22T06:02:00.777Z,21.16
2022-08-22T06:04:59.411Z,21.71
2022-08-22T06:07:35.568Z,21.21
2022-08-22T06:10:06.027Z,20.64
2022-08-22T06:12:37.278Z,21.31
2022-08-22T06:15:23.068Z,22.37
2022-08-22T06:17:57.861Z,21.23
2022-08-22T06:20:36.557Z,21.02
2022-08-22T06:23:05.920Z,21.58
2022-08-22T06:25:37.730Z,21.37
2022-08-22T06:28:08.392Z,21.09
2022-08-22T06:30:37.334Z,21.16
2022-08-22T06:33:12.380Z,20.83
2022-08-22T06:36:03.427Z,21.21
2022-08-22T06:38:33.597Z,21.51
2022-08-22T06:41:05.671Z,21.58
2022-08-22T06:43:38.755Z,22.25
2022-08-22T06:46:07.032Z,22.82
2022-08-22T06:48:35.453Z,22.92
2022-08-22T06:51:06.469Z,23.46
2022-08-22T06:53:47.883Z,23.66
2022-08-22T06:56:21.878Z,23.58
2022-08-22T06:58:50.962Z,24.10
2022-08-22T07:01:24.281Z,24.73
2022-08-22T07:03:59.591Z,24.57
2022-08-22T07:06:39.403Z,24.86
2022-08-22T07:09:16.357Z,25.33
2022-08-22T07:11:43.911Z,25.03
2022-08-22T07:14:15.881Z,24.41
2022-08-22T07:16:52.134Z,25.01
2022-08-22T07:19:36.961Z,24.78
2022-08-22T07:22:15.795Z,25.51
2022-08-22T07:24:48.297Z,25.17
2022-08-22T07:27:50.078Z,25.24
2022-08-22T07:30:28.066Z,25.28
2022-08-22T07:32:55.720Z,25.04
2022-08-22T07:35:41.692Z,24.97
2022-08-22T07:38:27.555Z,25.12
2022-08-22T07:41:17.991Z,25.47
2022-08-22T07:43:49.034Z,25.76
2022-08-22T07:46:30.686Z,25.67
2022-08-22T07:49:10.358Z,25.91
2022-08-22T07:51:47.566Z,25.97
2022-08-22T07:54:21.430Z,26.01
2022-08-22T07:57:05.361Z,25.74
2022-08-22T07:59:35.138Z,26.11
2022-08-22T08:02:06.278Z,26.49
2022-08-22T08:04:40.002Z,26.87
2022-08-22T08:07:11.922Z,26.51
2022-08-22T08:09:44.822Z,26.55
2022-08-22T08:12:12.968Z,26.84
2022-08-22T08:14:42.606Z,27.08
2022-08-22T08:17:24.094Z,27.43
2022-08-22T08:19:52.303Z,26.74
2022-08-22T08:22:26.458Z,26.46
2022-08-22T08:24:56.637Z,27.13
2022-08-22T08:27:50.279Z,26.81
2022-08-22T08:30:34.535Z,27.48
2022-08-22T08:33:25.563Z,28.19
2022-08-22T08:36:34.371Z,28.19
2022-08-22T08:39:23.659Z,28.14
2022-08-22T08:42:55.103Z,28.04
2022-08-22T08:46:10.794Z,27.48
2022-08-22T08:48:48.648Z,27.37
2022-08-22T08:51:45.166Z,27.52
2022-08-22T08:54:43.515Z,27.38
2022-08-22T08:57:38.464Z,26.87
2022-08-22T09:00:21.092Z,26.95
2022-08-22T09:03:11.432Z,26.75
2022-08-22T09:05:52.844Z,26.58
2022-08-22T09:08:45.509Z,26.65
2022-08-22T09:11:54.888Z,26.88
2022-08-22T09:14:40.354Z,26.83
2022-08-22T09:17:30.947Z,27.07
2022-08-22T09:20:17.985Z,27.24
2022-08-22T09:23:14.660Z,27.49
2022-08-22T09:25:54.779Z,27.25
2022-08-22T09:28:32.344Z,27.11
2022-08-22T09:31:32.784Z,27.00
2022-08-22T09:34:23.844Z,27.42
2022-08-22T09:37:25.413Z,27.16
2022-08-22T09:40:03.519Z,26.79
2022-08-22T09:42:44.891Z,26.73
2022-08-22T09:45:45.435Z,26.48
2022-08-22T09:48:49.558Z,26.80
2022-08-22T09:51:34.718Z,26.90
2022-08-22T09:54:40.218Z,27.22
2022-08-22T09:57:40.515Z,26.99
2022-08-22T10:00:22.148Z,27.23
2022-08-22T10:03:28.839Z,26.77
2022-08-22T10:06:01.513Z,26.99
2022-08-22T10:08:48.350Z,26.76
2022-08-22T10:11:28.831Z,26.78
2022-08-22T10:14:09.003Z,26.92
2022-08-22T10:16:58.160Z,26.83
2022-08-22T10:19:35.700Z,27.29
2022-08-22T10:22:05.528Z,27.06
2022-08-22T10:24:45.535Z,26.82
2022-08-22T10:27:17.573Z,26.82
2022-08-22T10:30:10.840Z,26.87
2022-08-22T10:33:00.102Z,27.15
2022-08-22T10:35:33.666Z,27.35
2022-08-22T10:38:21.457Z,27.43
2022-08-22T10:40:56.038Z,27.79
2022-08-22T10:43:40.872Z,27.79
2022-08-22T10:46:14.372Z,27.81
2022-08-22T10:48:49.040Z,27.50
2022-08-22T10:51:32.713Z,27.47
2022-08-22T10:54:19.931Z,27.74
2022-08-22T10:57:09.500Z,28.04
2022-08-22T10:59:51.031Z,28.31
2022-08-22T11:03:00.878Z,28.44
2022-08-22T11:05:36.826Z,28.13
2022-08-22T11:08:11.586Z,28.49
2022-08-22T11:10:57.573Z,28.85
2022-08-22T11:14:06.800Z,28.72
2022-08-22T11:17:23.654Z,28.55
2022-08-22T11:19:59.437Z,29.03
2022-08-22T11:22:35.375Z,28.70
2022-08-22T11:25:38.383Z,28.41
2022-08-22T11:28:12.555Z,27.92
2022-08-22T11:31:00.948Z,28.29
2022-08-22T11:33:46.467Z,28.29
2022-08-22T11:36:36.229Z,28.43
2022-08-22T11:39:22.883Z,27.62
2022-08-22T11:42:13.741Z,27.77
2022-08-22T11:44:59.763Z,26.90
2022-08-22T11:47:34.891Z,27.16
2022-08-22T11:50:21.568Z,26.21
2022-08-22T11:53:17.069Z,27.50
2022-08-22T11:56:17.049Z,26.74
2022-08-22T11:58:51.340Z,26.48
2022-08-22T12:01:23.880Z,27.28
2022-08-22T12:03:58.549Z,26.74
2022-08-22T12:06:28.895Z,27.80
2022-08-22T12:09:05.575Z,27.68
2022-08-22T12:11:45.071Z,27.67
2022-08-22T12:14:30.379Z,27.29
2022-08-22T12:17:55.932Z,27.14
2022-08-22T12:20:32.300Z,28.40
2022-08-22T12:23:06.063Z,28.28
2022-08-22T12:26:00.155Z,27.45
2022-08-22T12:28:49.763Z,27.75
2022-08-22T12:31:36.558Z,27.87
2022-08-22T12:34:23.545Z,27.95
2022-08-22T12:37:52.257Z,27.63
2022-08-22T12:40:36.426Z,27.46
2022-08-22T12:43:07.368Z,27.02
2022-08-22T12:46:12.821Z,27.56
2022-08-22T12:49:07.499Z,27.01
2022-08-22T12:52:08.602Z,27.16
2022-08-22T12:54:50.071Z,26.93
2022-08-22T12:57:27.068Z,26.54
2022-08-22T13:00:18.059Z,26.44
2022-08-22T13:02:54.360Z,25.47
2022-08-22T13:05:28.008Z,24.92
2022-08-22T13:08:04.397Z,25.03
2022-08-22T13:10:40.564Z,24.87
2022-08-22T13:13:12.741Z,24.31
2022-08-22T13:15:47.121Z,24.20
2022-08-22T13:18:30.627Z,24.12
2022-08-22T13:21:02.113Z,24.12
2022-08-22T13:23:34.276Z,24.00
2022-08-22T13:26:32.954Z,24.13
2022-08-22T13:29:26.738Z,23.75
2022-08-22T13:32:00.317Z,23.40
2022-08-22T13:34:44.673Z,23.84
2022-08-22T13:37:16.419Z,23.63
2022-08-22T13:39:47.010Z,23.79
2022-08-22T13:42:30.492Z,24.26
2022-08-22T13:45:04.513Z,24.22
2022-08-22T13:47:39.607Z,24.19
2022-08-22T13:50:19.195Z,23.74
2022-08-22T13:53:02.268Z,23.88
2022-08-22T13:55:38.759Z,24.21
2022-08-22T13:58:16.823Z,24.04
2022-08-22T14:00:58.205Z,24.08
2022-08-22T14:03:32.469Z,24.32
2022-08-22T14:06:32.789Z,24.06
2022-08-22T14:08:49.206Z,24.27
2022-08-22T14:11:27.803Z,24.27
2022-08-22T14:14:02.194Z,23.75
2022-08-22T14:16:33.707Z,23.81
2022-08-22T14:19:06.853Z,24.21
2022-08-22T14:21:40.708Z,23.61
2022-08-22T14:24:25.686Z,24.98
2022-08-22T14:27:14.426Z,23.46
2022-08-22T14:29:52.821Z,24.29
2022-08-22T14:32:22.612Z,23.65
2022-08-22T14:35:10.649Z,23.79
2022-08-22T14:37:47.414Z,24.20
2022-08-22T14:40:25.699Z,24.33
2022-08-22T14:43:09.526Z,23.77
2022-08-22T14:45:40.459Z,22.90
2022-08-22T14:48:30.283Z,23.40
2022-08-22T14:51:08.601Z,22.36
2022-08-22T14:53:38.598Z,23.24
2022-08-22T14:56:12.439Z,22.19
2022-08-22T14:59:01.823Z,22.38
2022-08-22T15:01:32.712Z,23.27
2022-08-22T15:04:03.346Z,23.33
2022-08-22T15:06:35.955Z,23.05
2022-08-22T15:09:35.459Z,23.54
2022-08-22T15:12:07.386Z,22.15
2022-08-22T15:14:37.856Z,22.75
2022-08-22T15:17:08.521Z,23.75
2022-08-22T15:19:41.048Z,24.28
2022-08-22T15:22:27.552Z,24.28
2022-08-22T15:25:12.970Z,22.67
2022-08-22T15:27:53.172Z,23.84
2022-08-22T15:30:44.462Z,23.58
2022-08-22T15:33:32.924Z,23.38
2022-08-22T15:36:27.287Z,22.71
2022-08-22T15:39:33.948Z,21.94
2022-08-22T15:42:02.747Z,21.75
2022-08-22T15:44:34.400Z,21.57
2022-08-22T15:47:10.852Z,21.83
2022-08-22T15:49:58.418Z,22.35
2022-08-22T15:52:30.244Z,21.79
2022-08-22T15:55:16.590Z,22.16
2022-08-22T15:57:52.044Z,21.50
2022-08-22T16:00:45.639Z,21.22
2022-08-22T16:03:28.988Z,21.90
2022-08-22T16:05:59.566Z,22.46
2022-08-22T16:08:51.384Z,22.43
2022-08-22T16:11:29.558Z,20.99
2022-08-22T16:14:21.686Z,21.31
2022-08-22T16:16:56.727Z,21.35
2022-08-22T16:19:27.337Z,20.90
2022-08-22T16:21:54.683Z,21.79
2022-08-22T16:24:22.087Z,20.80
2022-08-22T16:26:50.145Z,21.29
2022-08-22T16:29:41.251Z,20.81
2022-08-22T16:32:11.244Z,21.11
2022-08-22T16:34:38.519Z,20.97
2022-08-22T16:37:09.019Z,20.62
2022-08-22T16:39:38.527Z,21.88
2022-08-22T16:42:24.335Z,22.06
2022-08-22T16:44:56.903Z,21.38
2022-08-22T16:47:30.539Z,21.04
2022-08-22T16:50:19.758Z,21.07
2022-08-22T16:53:01.894Z,20.84
2022-08-22T16:55:29.634Z,21.35
2022-08-22T16:58:06.124Z,21.07
2022-08-22T17:00:57.571Z,21.63
2022-08-22T17:03:43.799Z,21.23
2022-08-22T17:06:50.428Z,21.53
2022-08-22T17:09:36.415Z,21.88
2022-08-22T17:12:25.238Z,21.50
2022-08-22T17:15:10.850Z,20.41
2022-08-22T17:18:00.353Z,20.47
2022-08-22T17:20:57.178Z,20.81
2022-08-22T17:23:46.541Z,21.45
2022-08-22T17:26:20.477Z,21.87
2022-08-22T17:29:09.883Z,21.96
2022-08-22T17:31:49.273Z,21.89
2022-08-22T17:34:29.316Z,21.79
2022-08-22T17:37:05.659Z,21.74
2022-08-22T17:40:01.035Z,21.77
2022-08-22T17:42:38.272Z,21.66
2022-08-22T17:45:20.453Z,21.54
2022-08-22T17:48:11.215Z,21.40
2022-08-22T17:50:46.294Z,21.46
2022-08-22T17:53:49.335Z,21.53
2022-08-22T17:56:31.811Z,21.47
2022-08-22T17:59:07.934Z,20.43
2022-08-22T18:01:49.644Z,21.05
2022-08-22T18:04:45.665Z,20.30
2022-08-22T18:07:14.951Z,20.52
2022-08-22T18:09:51.534Z,21.28
2022-08-22T18:12:34.356Z,21.19
2022-08-22T18:15:26.875Z,20.97
2022-08-22T18:17:59.636Z,21.23
2022-08-22T18:20:35.039Z,21.45
2022-08-22T18:23:21.517Z,21.70
2022-08-22T18:26:17.803Z,21.19
2022-08-22T18:28:53.053Z,21.20
2022-08-22T18:31:26.964Z,21.45
2022-08-22T18:34:10.112Z,21.15
2022-08-22T18:36:45.707Z,21.28
2022-08-22T18:39:25.553Z,21.16
2022-08-22T18:42:18.030Z,21.06
2022-08-22T18:44:45.769Z,21.21
2022-08-22T18:47:32.003Z,21.40
2022-08-22T18:50:02.305Z,21.44
2022-08-22T18:52:36.019Z,21.62
2022-08-22T18:55:23.408Z,21.83
2022-08-22T18:57:54.421Z,21.78
2022-08-22T19:00:48.125Z,21.78
2022-08-22T19:03:25.252Z,21.54
2022-08-22T19:06:21.213Z,21.92
2022-08-22T19:09:00.766Z,21.95
2022-08-22T19:11:37.485Z,21.72
2022-08-22T19:14:08.480Z,21.78
2022-08-22T19:16:57.851Z,21.98
2022-08-22T19:20:03.161Z,21.89
2022-08-22T19:22:36.010Z,20.06
2022-08-22T19:25:08.872Z,19.49
2022-08-22T19:28:04.159Z,20.13
2022-08-22T19:30:41.816Z,21.15
2022-08-22T19:33:20.357Z,19.66
2022-08-22T19:36:12.567Z,20.30
2022-08-22T19:38:51.058Z,20.96
2022-08-22T19:41:45.679Z,20.14
2022-08-22T19:44:19.408Z,21.10
2022-08-22T19:47:18.930Z,20.84
2022-08-22T19:50:22.702Z,20.69
2022-08-22T19:53:07.520Z,20.31
2022-08-22T19:55:38.038Z,20.54
2022-08-22T19:59:00.196Z,20.25
2022-08-22T20:01:39.440Z,20.00
2022-08-22T20:04:30.221Z,19.96
2022-08-22T20:07:14.885Z,19.82
2022-08-22T20:10:01.611Z,19.65
2022-08-22T20:12:29.255Z,20.67
2022-08-22T20:14:57.482Z,20.04
2022-08-22T20:17:25.181Z,21.02
2022-08-22T20:20:24.053Z,21.44
2022-08-22T20:22:59.701Z,20.95
2022-08-22T20:25:44.185Z,21.09
2022-08-22T20:28:34.111Z,21.11
2022-08-22T20:31:07.632Z,20.78
2022-08-22T20:33:38.882Z,19.82
2022-08-22T20:36:16.638Z,20.06
2022-08-22T20:38:58.743Z,20.79
2022-08-22T20:41:29.028Z,20.54
2022-08-22T20:44:12.618Z,20.76
2022-08-22T20:46:46.415Z,20.62
2022-08-22T20:49:19.901Z,20.58
2022-08-22T20:52:08.305Z,19.49
2022-08-22T20:54:38.973Z,19.34
2022-08-22T20:57:19.463Z,19.49
2022-08-22T20:59:58.935Z,20.17
2022-08-22T21:02:39.776Z,19.86
2022-08-22T21:05:13.535Z,20.42
2022-08-22T21:07:50.198Z,20.54
2022-08-22T21:10:46.296Z,20.70
2022-08-22T21:13:25.628Z,20.43
2022-08-22T21:16:02.662Z,19.51
2022-08-22T21:18:36.497Z,19.35
2022-08-22T21:21:22.523Z,19.88
2022-08-22T21:23:55.490Z,19.16
2022-08-22T21:26:31.553Z,18.97
2022-08-22T21:29:07.249Z,19.03
2022-08-22T21:31:41.927Z,19.95
2022-08-22T21:34:28.883Z,19.72
2022-08-22T21:37:00.418Z,19.32
2022-08-22T21:39:59.052Z,20.38
2022-08-22T21:42:35.097Z,20.34
2022-08-22T21:45:08.012Z,19.99
2022-08-22T21:47:41.150Z,20.38
2022-08-22T21:50:20.571Z,20.04
2022-08-22T21:52:54.169Z,19.44
2022-08-22T21:55:35.104Z,20.23
2022-08-22T21:58:35.175Z,20.49
2022-08-22T22:01:31.503Z,20.57
2022-08-22T22:03:59.788Z,19.90
2022-08-22T22:06:27.340Z,20.20
2022-08-22T22:08:55.211Z,20.04
2022-08-22T22:11:22.940Z,20.06
2022-08-22T22:13:50.326Z,20.46
2022-08-22T22:16:23.352Z,20.77
2022-08-22T22:18:51.048Z,19.83
2022-08-22T22:21:18.535Z,20.78
2022-08-22T22:23:46.089Z,20.76
2022-08-22T22:26:13.954Z,20.62
2022-08-22T22:28:44.479Z,20.90
2022-08-22T22:31:11.872Z,20.41
2022-08-22T22:33:42.396Z,20.85
2022-08-22T22:36:24.792Z,21.04
2022-08-22T22:38:53.390Z,21.15
2022-08-22T22:41:25.303Z,20.75
2022-08-22T22:43:54.191Z,20.71
2022-08-22T22:46:22.563Z,20.57
2022-08-22T22:48:50.261Z,20.33
2022-08-22T22:51:17.979Z,21.33
2022-08-22T22:53:46.044Z,21.05
2022-08-22T22:56:18.040Z,21.13
2022-08-22T22:58:59.289Z,20.93
2022-08-22T23:01:28.481Z,21.35
2022-08-22T23:03:58.303Z,21.36
2022-08-22T23:06:28.485Z,21.40
2022-08-22T23:08:56.578Z,20.90
2022-08-22T23:11:26.336Z,20.43
2022-08-22T23:13:54.074Z,20.01
2022-08-22T23:16:24.842Z,20.48
2022-08-22T23:18:52.375Z,20.45
2022-08-22T23:21:20.958Z,19.01
2022-08-22T23:23:49.342Z,20.17
2022-08-22T23:26:17.076Z,20.81
2022-08-22T23:28:44.951Z,20.50
2022-08-22T23:31:28.045Z,20.68
2022-08-22T23:33:56.254Z,20.55
2022-08-22T23:36:24.556Z,20.49
2022-08-22T23:38:52.115Z,20.76
2022-08-22T23:41:21.651Z,20.14
2022-08-22T23:43:52.139Z,20.19
2022-08-22T23:46:21.186Z,20.72
2022-08-22T23:48:49.620Z,18.91
2022-08-22T23:51:22.909Z,19.91
2022-08-22T23:53:55.881Z,20.22
2022-08-22T23:56:32.603Z,19.89
2022-08-22T23:59:02.103Z,20.15
